createdAt,value
2023-05-02T00:01:43.114Z,0
2023-05-02T00:05:08.279Z,0
2023-05-02T00:08:33.458Z,0
2023-05-02T00:11:58.674Z,0
2023-05-02T00:15:23.851Z,0
2023-05-02T00:18:49.001Z,0
2023-05-02T00:22:14.186Z,0
2023-05-02T00:25:39.350Z,0
2023-05-02T00:29:04.562Z,0
2023-05-02T00:32:29.749Z,0
2023-05-02T00:35:54.905Z,0
2023-05-02T00:39:20.097Z,0
2023-05-02T00:42:45.296Z,0
2023-05-02T00:46:10.517Z,0
2023-05-02T00:49:35.628Z,0
2023-05-02T00:53:00.813Z,0
2023-05-02T00:56:25.967Z,0
2023-05-02T00:59:51.165Z,0
2023-05-02T01:03:16.431Z,0
2023-05-02T01:06:41.549Z,0
2023-05-02T01:10:06.675Z,0
2023-05-02T01:13:31.862Z,0
2023-05-02T01:16:57.028Z,0
2023-05-02T01:20:22.217Z,0
2023-05-02T01:23:47.355Z,0
2023-05-02T01:27:12.569Z,0
2023-05-02T01:30:37.759Z,0
2023-05-02T01:34:02.910Z,0
2023-05-02T01:37:28.105Z,0
2023-05-02T01:40:53.246Z,0
2023-05-02T01:44:18.452Z,0
2023-05-02T01:47:43.673Z,0
2023-05-02T01:51:08.793Z,0
2023-05-02T01:54:34.113Z,0
2023-05-02T01:57:59.176Z,0
2023-05-02T02:01:24.366Z,0
2023-05-02T02:04:49.557Z,0
2023-05-02T02:08:15.360Z,0
2023-05-02T02:11:40.572Z,0
2023-05-02T02:15:05.720Z,0
2023-05-02T02:18:30.878Z,0
2023-05-02T02:21:56.063Z,0
2023-05-02T02:25:21.247Z,0
2023-05-02T02:28:46.456Z,0
2023-05-02T02:32:11.597Z,0
2023-05-02T02:35:36.876Z,0
2023-05-02T02:39:02.085Z,0
2023-05-02T02:42:27.218Z,0
2023-05-02T02:45:52.557Z,0
2023-05-02T02:49:17.564Z,0
2023-05-02T02:52:42.769Z,0
2023-05-02T02:56:07.947Z,0
2023-05-02T02:59:33.158Z,0
2023-05-02T03:02:58.386Z,0
2023-05-02T03:06:23.528Z,0
2023-05-02T03:09:48.663Z,0
2023-05-02T03:13:13.833Z,0
2023-05-02T03:16:39.055Z,0
2023-05-02T03:20:04.210Z,0
2023-05-02T03:23:29.365Z,0
2023-05-02T03:26:54.542Z,1
2023-05-02T03:30:19.718Z,0
2023-05-02T03:33:44.892Z,1
2023-05-02T03:37:10.097Z,1
2023-05-02T03:40:35.471Z,1
2023-05-02T03:44:00.673Z,1
2023-05-02T03:47:25.911Z,1
2023-05-02T03:51:06.033Z,2
2023-05-02T03:54:31.645Z,3
2023-05-02T03:57:57.105Z,4
2023-05-02T04:01:22.285Z,4
2023-05-02T04:04:47.722Z,5
2023-05-02T04:08:12.707Z,7
2023-05-02T04:11:37.901Z,9
2023-05-02T04:15:03.089Z,12
2023-05-02T04:18:28.261Z,17
2023-05-02T04:21:53.465Z,22
2023-05-02T04:25:18.620Z,24
2023-05-02T04:28:43.839Z,28
2023-05-02T04:32:08.954Z,26
2023-05-02T04:35:34.112Z,29
2023-05-02T04:38:59.308Z,34
2023-05-02T04:42:24.515Z,42
2023-05-02T04:45:49.798Z,54
2023-05-02T04:49:14.885Z,60
2023-05-02T04:52:40.081Z,60
2023-05-02T04:56:05.272Z,62
2023-05-02T04:59:30.425Z,72
2023-05-02T05:02:55.698Z,69
2023-05-02T05:06:20.825Z,72
2023-05-02T05:09:45.956Z,75
2023-05-02T05:13:11.122Z,89
2023-05-02T05:16:36.293Z,88
2023-05-02T05:20:01.751Z,84
2023-05-02T05:23:26.613Z,90
2023-05-02T05:26:51.755Z,100
2023-05-02T05:30:16.953Z,119
2023-05-02T05:33:42.127Z,143
2023-05-02T05:37:07.519Z,134
2023-05-02T05:40:32.428Z,98
2023-05-02T05:43:57.589Z,80
2023-05-02T05:47:22.872Z,69
2023-05-02T05:50:47.956Z,56
2023-05-02T05:54:13.184Z,63
2023-05-02T05:57:38.473Z,62
2023-05-02T06:01:03.707Z,68
2023-05-02T06:04:28.948Z,88
2023-05-02T06:07:54.175Z,104
2023-05-02T06:11:19.440Z,104
2023-05-02T06:14:44.609Z,102
2023-05-02T06:18:09.921Z,152
2023-05-02T06:21:35.058Z,168
2023-05-02T06:25:00.297Z,146
2023-05-02T06:28:25.602Z,113
2023-05-02T06:31:50.893Z,93
2023-05-02T06:35:16.102Z,94
2023-05-02T06:38:41.344Z,101
2023-05-02T06:42:06.558Z,111
2023-05-02T06:45:31.769Z,110
2023-05-02T06:48:57.005Z,117
2023-05-02T06:52:22.238Z,115
2023-05-02T06:55:47.408Z,103
2023-05-02T06:59:12.570Z,73
2023-05-02T07:02:37.844Z,81
2023-05-02T07:06:03.083Z,94
2023-05-02T07:09:28.261Z,119
2023-05-02T07:12:53.478Z,166
2023-05-02T07:16:18.705Z,114
2023-05-02T07:19:45.452Z,81
2023-05-02T07:23:09.066Z,110
2023-05-02T07:26:34.242Z,152
2023-05-02T07:29:59.575Z,163
2023-05-02T07:33:24.631Z,196
2023-05-02T07:36:49.987Z,226
2023-05-02T07:40:15.084Z,239
2023-05-02T07:43:40.349Z,247
2023-05-02T07:47:05.546Z,198
2023-05-02T07:50:30.773Z,179
2023-05-02T07:53:56.155Z,172
2023-05-02T07:57:21.237Z,239
2023-05-02T08:00:46.489Z,278
2023-05-02T08:04:11.888Z,283
2023-05-02T08:07:37.369Z,319
2023-05-02T08:11:02.322Z,395
2023-05-02T08:14:28.341Z,440
2023-05-02T08:17:53.609Z,439
2023-05-02T08:21:18.897Z,376
2023-05-02T08:24:44.167Z,370
2023-05-02T08:28:09.423Z,302
2023-05-02T08:31:34.659Z,376
2023-05-02T08:34:59.879Z,401
2023-05-02T08:38:25.114Z,323
2023-05-02T08:41:50.303Z,284
2023-05-02T08:48:40.874Z,228
2023-05-02T08:52:06.072Z,269
2023-05-02T08:55:31.265Z,248
2023-05-02T08:58:57.299Z,256
2023-05-02T09:02:22.604Z,301
2023-05-02T09:05:47.789Z,313
2023-05-02T09:09:12.990Z,296
2023-05-02T09:12:38.188Z,294
2023-05-02T09:16:03.493Z,276
2023-05-02T09:19:28.922Z,254
2023-05-02T09:22:54.112Z,263
2023-05-02T09:26:19.316Z,228
2023-05-02T09:29:44.578Z,286
2023-05-02T09:33:09.802Z,331
2023-05-02T09:36:35.022Z,368
2023-05-02T09:40:00.254Z,330
2023-05-02T09:43:25.461Z,373
2023-05-02T09:46:50.716Z,282
2023-05-02T09:50:15.954Z,259
2023-05-02T09:53:41.271Z,253
2023-05-02T09:57:06.451Z,257
2023-05-02T10:00:31.722Z,307
2023-05-02T10:03:57.036Z,360
2023-05-02T10:07:22.249Z,407
2023-05-02T10:10:47.516Z,494
2023-05-02T10:14:12.766Z,541
2023-05-02T10:17:38.341Z,448
2023-05-02T10:21:05.897Z,423
2023-05-02T10:24:31.116Z,347
2023-05-02T10:27:56.437Z,403
2023-05-02T10:31:21.707Z,391
2023-05-02T10:34:46.925Z,319
2023-05-02T10:38:12.144Z,364
2023-05-02T10:41:37.374Z,492
2023-05-02T10:45:02.796Z,673
2023-05-02T10:48:27.852Z,579
2023-05-02T10:51:53.078Z,484
2023-05-02T10:55:18.377Z,463
2023-05-02T10:58:43.644Z,490
2023-05-02T11:02:08.914Z,457
2023-05-02T11:05:34.131Z,477
2023-05-02T11:08:59.906Z,521
2023-05-02T11:12:25.152Z,541
2023-05-02T11:15:50.412Z,585
2023-05-02T11:19:15.666Z,1280
2023-05-02T11:22:40.874Z,1224
2023-05-02T11:26:06.138Z,1241
2023-05-02T11:29:31.413Z,645
2023-05-02T11:32:56.669Z,960
2023-05-02T11:36:21.953Z,778
2023-05-02T11:39:47.227Z,625
2023-05-02T11:43:12.421Z,496
2023-05-02T11:46:37.816Z,1196
2023-05-02T11:50:02.922Z,1130
2023-05-02T11:53:28.265Z,1233
2023-05-02T11:56:53.414Z,512
2023-05-02T12:00:18.703Z,423
2023-05-02T12:03:58.014Z,422
2023-05-02T12:07:23.298Z,489
2023-05-02T12:10:48.601Z,605
2023-05-02T12:14:14.789Z,647
2023-05-02T12:17:53.114Z,490
2023-05-02T12:21:32.065Z,689
2023-05-02T12:24:57.829Z,887
2023-05-02T12:28:23.163Z,418
2023-05-02T12:31:48.738Z,510
2023-05-02T12:35:13.942Z,526
2023-05-02T12:38:39.252Z,819
2023-05-02T12:42:04.489Z,586
2023-05-02T12:45:29.860Z,543
2023-05-02T12:48:55.098Z,473
2023-05-02T12:52:20.437Z,188
2023-05-02T12:55:45.846Z,70
2023-05-02T12:59:11.222Z,44
2023-05-02T13:02:36.608Z,68
2023-05-02T13:06:01.890Z,67
2023-05-02T13:09:27.213Z,68
2023-05-02T13:12:52.626Z,71
2023-05-02T13:16:18.019Z,85
2023-05-02T13:19:47.638Z,82
2023-05-02T13:23:08.618Z,77
2023-05-02T13:26:33.908Z,81
2023-05-02T13:29:59.374Z,83
2023-05-02T13:33:24.667Z,97
2023-05-02T13:36:49.995Z,148
2023-05-02T13:40:15.294Z,208
2023-05-02T13:43:40.552Z,284
2023-05-02T13:47:05.912Z,362
2023-05-02T13:50:31.131Z,392
2023-05-02T13:53:56.399Z,357
2023-05-02T13:57:21.633Z,303
2023-05-02T14:00:46.899Z,262
2023-05-02T14:04:12.288Z,264
2023-05-02T14:07:37.374Z,307
2023-05-02T14:11:03.097Z,326
2023-05-02T14:14:27.951Z,288
2023-05-02T14:17:53.179Z,304
2023-05-02T14:21:18.447Z,320
2023-05-02T14:24:43.775Z,358
2023-05-02T14:28:09.042Z,383
2023-05-02T14:31:34.350Z,203
2023-05-02T14:34:59.752Z,121
2023-05-02T14:38:25.065Z,123
2023-05-02T14:41:50.373Z,135
2023-05-02T14:45:15.684Z,190
2023-05-02T14:48:41.078Z,150
2023-05-02T14:52:06.390Z,143
2023-05-02T14:55:31.683Z,133
2023-05-02T14:58:57.008Z,111
2023-05-02T15:02:22.422Z,83
2023-05-02T15:05:47.526Z,49
2023-05-02T15:40:09.183Z,76
2023-05-02T15:43:34.483Z,236
2023-05-02T15:46:59.830Z,202
2023-05-02T15:50:25.152Z,222
2023-05-02T15:53:50.502Z,206
2023-05-02T15:57:15.911Z,218
2023-05-02T16:00:41.211Z,210
2023-05-02T16:04:06.481Z,218
2023-05-02T16:07:31.770Z,272
2023-05-02T16:10:57.088Z,306
2023-05-02T16:14:22.421Z,193
2023-05-02T16:17:48.620Z,152
2023-05-02T16:21:13.870Z,75
2023-05-02T16:24:39.168Z,54
2023-05-02T16:28:04.551Z,79
2023-05-02T16:31:29.986Z,52
2023-05-02T16:34:55.216Z,58
2023-05-02T16:38:20.647Z,86
2023-05-02T16:41:45.932Z,63
2023-05-02T16:45:11.231Z,45
2023-05-02T16:48:36.501Z,50
2023-05-02T16:52:01.731Z,31
2023-05-02T16:55:26.999Z,18
2023-05-02T16:58:52.437Z,25
2023-05-02T17:02:17.745Z,15
2023-05-02T17:05:43.017Z,12
2023-05-02T17:09:08.371Z,14
2023-05-02T17:12:33.688Z,20
2023-05-02T17:15:59.033Z,21
2023-05-02T17:19:24.321Z,25
2023-05-02T17:22:49.648Z,24
2023-05-02T17:26:14.888Z,25
2023-05-02T17:29:40.149Z,25
2023-05-02T17:33:05.507Z,36
2023-05-02T17:36:30.749Z,46
2023-05-02T17:39:56.082Z,42
2023-05-02T17:43:21.323Z,23
2023-05-02T17:46:46.785Z,15
2023-05-02T17:50:11.871Z,16
2023-05-02T17:53:37.134Z,10
2023-05-02T17:57:02.393Z,8
2023-05-02T18:00:27.615Z,4
2023-05-02T18:05:22.406Z,1
2023-05-02T18:08:47.614Z,3
2023-05-02T18:12:12.825Z,3
2023-05-02T18:15:38.007Z,2
2023-05-02T18:19:03.209Z,2
2023-05-02T18:22:28.479Z,2
2023-05-02T18:25:53.693Z,2
2023-05-02T18:29:18.927Z,1
2023-05-02T18:32:44.152Z,1
2023-05-02T18:36:09.292Z,1
2023-05-02T18:39:34.535Z,1
2023-05-02T18:42:59.737Z,2
2023-05-02T18:46:24.999Z,1
2023-05-02T18:49:50.249Z,1
2023-05-02T18:53:15.470Z,1
2023-05-02T18:56:40.658Z,1
2023-05-02T19:00:05.931Z,1
2023-05-02T19:03:31.293Z,0
2023-05-02T19:06:56.481Z,0
2023-05-02T19:10:21.754Z,0
2023-05-02T19:13:47.023Z,0
2023-05-02T19:17:12.302Z,0
2023-05-02T19:20:37.567Z,0
2023-05-02T19:24:02.788Z,0
2023-05-02T19:27:28.072Z,0
2023-05-02T19:30:53.318Z,0
2023-05-02T19:34:18.568Z,0
2023-05-02T19:37:43.821Z,0
2023-05-02T19:41:09.008Z,0
2023-05-02T19:44:34.294Z,0
2023-05-02T19:47:59.551Z,0
2023-05-02T19:51:24.800Z,0
2023-05-02T19:54:50.129Z,0
2023-05-02T19:58:15.347Z,0
2023-05-02T20:01:40.620Z,0
2023-05-02T20:05:05.849Z,0
2023-05-02T20:08:31.118Z,0
2023-05-02T20:11:56.344Z,0
2023-05-02T20:15:21.556Z,0
2023-05-02T20:18:46.868Z,0
2023-05-02T20:22:12.126Z,0
2023-05-02T20:25:37.400Z,0
2023-05-02T20:29:02.679Z,0
2023-05-02T20:32:28.072Z,0
2023-05-02T20:35:53.240Z,0
2023-05-02T20:39:18.446Z,0
2023-05-02T20:42:43.732Z,0
2023-05-02T20:46:09.029Z,0
2023-05-02T20:49:34.172Z,0
2023-05-02T20:52:59.400Z,0
2023-05-02T20:56:24.570Z,0
2023-05-02T20:59:49.779Z,0
2023-05-02T21:03:15.104Z,0
2023-05-02T21:06:40.199Z,0
2023-05-02T21:10:05.607Z,0
2023-05-02T21:13:30.581Z,0
2023-05-02T21:16:55.846Z,0
2023-05-02T21:20:21.047Z,0
2023-05-02T21:23:46.245Z,0
2023-05-02T21:27:11.456Z,0
2023-05-02T21:30:36.675Z,0
2023-05-02T21:34:01.880Z,0
2023-05-02T21:37:27.106Z,0
2023-05-02T21:40:52.291Z,0
2023-05-02T21:44:17.460Z,0
2023-05-02T21:47:42.744Z,0
2023-05-02T21:51:07.916Z,0
2023-05-02T21:54:33.142Z,0
2023-05-02T21:57:58.343Z,0
2023-05-02T22:01:23.607Z,0
2023-05-02T22:04:48.818Z,0
2023-05-02T22:08:13.999Z,0
2023-05-02T22:11:39.234Z,0
2023-05-02T22:15:04.428Z,0
2023-05-02T22:18:29.589Z,0
2023-05-02T22:21:55.632Z,0
2023-05-02T22:25:20.037Z,0
2023-05-02T22:28:45.286Z,0
2023-05-02T22:32:10.559Z,0
2023-05-02T22:35:35.678Z,0
2023-05-02T22:39:00.905Z,0
2023-05-02T22:42:26.163Z,0
2023-05-02T22:45:51.518Z,0
2023-05-02T22:49:16.553Z,0
2023-05-02T22:52:41.773Z,0
2023-05-02T22:56:06.993Z,0
2023-05-02T22:59:32.225Z,0
2023-05-02T23:02:57.508Z,0
2023-05-02T23:06:22.715Z,0
2023-05-02T23:09:47.862Z,0
2023-05-02T23:13:13.108Z,0
2023-05-02T23:16:38.329Z,0
2023-05-02T23:20:03.778Z,0
2023-05-02T23:23:28.731Z,0
2023-05-02T23:26:53.931Z,0
2023-05-02T23:30:19.171Z,0
2023-05-02T23:33:44.379Z,0
2023-05-02T23:37:09.620Z,0
2023-05-02T23:40:34.843Z,0
2023-05-02T23:43:59.995Z,0
2023-05-02T23:47:25.251Z,0
2023-05-02T23:50:50.456Z,0
2023-05-02T23:54:15.699Z,0
2023-05-02T23:57:40.925Z,0
